createdAt,value
2022-10-17T00:00:33.279Z,10.37
2022-10-17T00:05:56.137Z,11.40
2022-10-17T00:11:23.939Z,5.13
2022-10-17T00:16:46.263Z,5.00
2022-10-17T00:22:08.879Z,9.67
2022-10-17T00:27:34.330Z,16.70
2022-10-17T00:32:56.699Z,6.97
2022-10-17T00:38:19.291Z,10.57
2022-10-17T00:43:56.597Z,6.63
2022-10-17T00:49:19.731Z,7.17
2022-10-17T00:54:46.519Z,6.67
2022-10-17T01:00:11.024Z,6.77
2022-10-17T01:05:33.456Z,6.90
2022-10-17T01:11:21.505Z,7.73
2022-10-17T01:16:49.097Z,5.10
2022-10-17T01:22:34.391Z,5.40
2022-10-17T01:28:02.200Z,9.27
2022-10-17T01:33:52.930Z,10.97
2022-10-17T01:39:34.440Z,5.93
2022-10-17T01:45:10.528Z,4.30
2022-10-17T01:50:44.140Z,4.60
2022-10-17T01:56:09.387Z,6.47
2022-10-17T02:01:33.014Z,4.83
2022-10-17T02:06:56.035Z,4.43
2022-10-17T02:12:43.175Z,4.40
2022-10-17T02:18:25.747Z,4.00
2022-10-17T02:24:18.769Z,3.60
2022-10-17T02:29:48.477Z,4.03
2022-10-17T02:35:15.612Z,4.00
2022-10-17T02:40:40.803Z,4.00
2022-10-17T02:46:03.513Z,4.33
2022-10-17T02:51:50.231Z,5.87
2022-10-17T02:57:18.956Z,4.10
2022-10-17T03:02:47.275Z,5.33
2022-10-17T03:08:09.485Z,4.07
2022-10-17T03:13:34.955Z,4.23
2022-10-17T03:19:00.421Z,5.40
2022-10-17T03:24:23.108Z,4.60
2022-10-17T03:29:45.985Z,4.83
2022-10-17T03:35:14.874Z,6.57
2022-10-17T03:40:40.632Z,6.13
2022-10-17T03:46:04.013Z,8.30
2022-10-17T03:51:27.117Z,9.07
2022-10-17T04:02:20.005Z,10.60
2022-10-17T04:07:42.368Z,8.77
2022-10-17T04:13:06.561Z,8.13
2022-10-17T04:18:29.627Z,9.90
2022-10-17T04:24:00.045Z,7.90
2022-10-17T04:29:45.401Z,7.60
2022-10-17T04:35:15.140Z,7.23
2022-10-17T04:40:42.854Z,7.37
2022-10-17T04:46:08.358Z,8.27
2022-10-17T04:51:31.280Z,10.67
2022-10-17T04:57:06.963Z,11.03
2022-10-17T05:02:29.851Z,9.37
2022-10-17T05:07:52.915Z,10.23
2022-10-17T05:13:18.956Z,9.30
2022-10-17T05:18:41.405Z,10.90
2022-10-17T05:24:09.149Z,11.07
2022-10-17T05:29:31.513Z,8.00
2022-10-17T05:35:04.470Z,8.03
2022-10-17T05:40:28.251Z,7.93
2022-10-17T05:45:51.023Z,14.83
2022-10-17T05:51:16.114Z,12.07
2022-10-17T05:56:38.975Z,15.23
2022-10-17T06:02:01.557Z,12.40
2022-10-17T06:07:25.379Z,8.87
2022-10-17T06:12:48.529Z,13.37
2022-10-17T06:18:12.001Z,9.77
2022-10-17T06:23:34.858Z,9.57
2022-10-17T06:29:09.003Z,10.03
2022-10-17T06:34:37.271Z,11.60
2022-10-17T06:39:59.988Z,10.47
2022-10-17T06:45:22.376Z,13.60
2022-10-17T06:51:11.507Z,11.53
2022-10-17T06:56:45.660Z,13.40
2022-10-17T07:02:24.350Z,12.40
2022-10-17T07:07:50.982Z,11.10
2022-10-17T07:13:14.680Z,14.33
2022-10-17T07:18:37.424Z,14.17
2022-10-17T07:23:59.857Z,12.60
2022-10-17T07:29:22.511Z,12.50
2022-10-17T07:34:53.719Z,13.23
2022-10-17T07:40:15.997Z,13.90
2022-10-17T07:45:38.852Z,11.73
2022-10-17T07:51:05.346Z,12.83
2022-10-17T07:56:29.648Z,13.00
2022-10-17T08:01:55.069Z,11.00
2022-10-17T08:07:23.013Z,10.67
2022-10-17T08:12:47.980Z,10.20
2022-10-17T08:18:10.420Z,13.30
2022-10-17T08:23:32.787Z,11.33
2022-10-17T08:28:55.499Z,9.13
2022-10-17T08:34:18.331Z,8.83
2022-10-17T08:39:44.658Z,9.20
2022-10-17T08:45:18.630Z,9.43
2022-10-17T08:50:47.564Z,8.13
2022-10-17T08:56:43.941Z,8.37
2022-10-17T09:02:34.461Z,6.35
2022-10-17T09:08:33.252Z,8.90
2022-10-17T09:14:22.289Z,9.95
2022-10-17T09:20:04.822Z,8.05
2022-10-17T09:25:28.462Z,6.63
2022-10-17T09:30:58.621Z,4.65
2022-10-17T09:36:36.005Z,4.15
2022-10-17T09:42:00.871Z,5.93
2022-10-17T09:47:26.740Z,4.47
2022-10-17T09:52:50.828Z,6.43
2022-10-17T09:58:13.183Z,5.68
2022-10-17T10:03:35.555Z,5.70
2022-10-17T10:08:58.824Z,5.53
2022-10-17T10:14:36.163Z,5.32
2022-10-17T10:19:59.102Z,7.97
2022-10-17T10:25:21.784Z,4.30
2022-10-17T10:30:49.595Z,4.70
2022-10-17T10:36:12.360Z,7.22
2022-10-17T10:41:47.905Z,5.00
2022-10-17T10:47:22.064Z,5.63
2022-10-17T10:52:54.487Z,4.35
2022-10-17T10:58:27.700Z,6.93
2022-10-17T11:04:01.249Z,4.28
2022-10-17T11:09:46.642Z,4.45
2022-10-17T11:15:21.016Z,6.75
2022-10-17T11:20:53.244Z,5.07
2022-10-17T11:26:34.773Z,4.32
2022-10-17T11:32:04.065Z,5.70
2022-10-17T11:37:34.513Z,7.78
2022-10-17T11:43:04.180Z,7.47
2022-10-17T11:48:43.136Z,7.07
2022-10-17T11:54:15.443Z,6.07
2022-10-17T11:59:43.597Z,8.50
2022-10-17T12:05:07.083Z,5.13
2022-10-17T12:10:54.920Z,5.50
2022-10-17T12:16:20.433Z,4.97
2022-10-17T12:21:57.328Z,6.32
2022-10-17T12:27:32.781Z,5.68
2022-10-17T12:33:05.536Z,9.93
2022-10-17T12:38:28.714Z,9.43
2022-10-17T12:43:53.256Z,7.35
2022-10-17T12:49:37.118Z,9.70
2022-10-17T12:55:12.053Z,7.40
2022-10-17T13:01:18.979Z,8.15
2022-10-17T13:06:44.877Z,5.57
2022-10-17T13:12:14.874Z,5.25
2022-10-17T13:17:40.687Z,6.93
2022-10-17T13:23:05.751Z,7.38
2022-10-17T13:28:29.237Z,7.05
2022-10-17T13:33:57.193Z,5.75
2022-10-17T13:39:38.248Z,6.53
2022-10-17T13:45:28.013Z,8.95
2022-10-17T13:50:53.798Z,9.98
2022-10-17T13:56:29.520Z,8.45
2022-10-17T14:01:53.092Z,6.82
2022-10-17T14:07:34.223Z,7.40
2022-10-17T14:13:01.789Z,12.20
2022-10-17T14:18:35.895Z,8.70
2022-10-17T14:24:28.810Z,11.50
2022-10-17T14:29:53.753Z,8.77
2022-10-17T14:35:37.374Z,8.25
2022-10-17T14:41:30.624Z,10.73
2022-10-17T14:46:50.921Z,7.80
2022-10-17T14:52:18.356Z,7.35
2022-10-17T14:57:44.244Z,10.23
2022-10-17T15:03:06.918Z,6.35
2022-10-17T15:08:29.247Z,8.75
2022-10-17T15:13:52.421Z,9.13
2022-10-17T15:19:15.058Z,10.23
2022-10-17T15:24:37.249Z,10.32
2022-10-17T15:29:59.794Z,12.85
2022-10-17T15:35:22.842Z,11.25
2022-10-17T15:40:48.930Z,10.63
2022-10-17T15:46:32.698Z,7.65
2022-10-17T15:51:55.416Z,9.32
2022-10-17T15:57:24.545Z,9.63
2022-10-17T16:02:47.663Z,12.20
2022-10-17T16:08:10.285Z,9.52
2022-10-17T16:13:32.980Z,11.48
2022-10-17T16:18:55.979Z,15.85
2022-10-17T16:24:18.940Z,10.43
2022-10-17T16:29:41.348Z,10.30
2022-10-17T16:35:04.839Z,12.25
2022-10-17T16:40:27.196Z,9.25
2022-10-17T16:45:49.675Z,8.55
2022-10-17T16:51:13.541Z,9.40
2022-10-17T16:56:36.107Z,20.00
2022-10-17T17:01:58.476Z,9.13
2022-10-17T17:07:21.950Z,12.15
2022-10-17T17:12:44.390Z,9.55
2022-10-17T17:18:07.182Z,13.52
2022-10-17T17:23:30.679Z,13.98
2022-10-17T17:28:56.022Z,16.88
2022-10-17T17:34:18.577Z,14.57
2022-10-17T17:39:41.102Z,11.15
2022-10-17T17:45:04.252Z,9.63
2022-10-17T17:50:26.631Z,10.15
2022-10-17T17:56:00.214Z,14.90
2022-10-17T18:01:24.547Z,14.38
2022-10-17T18:06:46.940Z,14.45
2022-10-17T18:12:09.674Z,12.15
2022-10-17T18:17:31.877Z,14.55
2022-10-17T18:22:54.329Z,19.08
2022-10-17T18:28:16.907Z,8.52
2022-10-17T18:33:40.041Z,12.10
2022-10-17T18:39:03.143Z,12.70
2022-10-17T18:44:25.300Z,17.00
2022-10-17T18:49:48.427Z,13.52
2022-10-17T18:55:10.992Z,15.60
2022-10-17T19:00:33.374Z,13.55
2022-10-17T19:05:57.826Z,14.00
2022-10-17T19:11:25.171Z,14.88
2022-10-17T19:16:51.136Z,14.48
2022-10-17T19:22:13.283Z,17.92
2022-10-17T19:27:35.719Z,26.67
2022-10-17T19:32:58.017Z,26.47
2022-10-17T19:38:20.398Z,33.53
2022-10-17T19:43:44.124Z,32.60
2022-10-17T19:49:07.178Z,32.28
2022-10-17T19:54:29.448Z,16.40
2022-10-17T19:59:53.735Z,15.47
2022-10-17T20:05:19.376Z,21.13
2022-10-17T20:10:43.456Z,14.57
2022-10-17T20:16:07.822Z,14.93
2022-10-17T20:21:33.059Z,15.10
2022-10-17T20:26:55.258Z,15.93
2022-10-17T20:32:17.436Z,17.93
2022-10-17T20:37:42.515Z,19.30
2022-10-17T20:43:07.680Z,14.03
2022-10-17T20:48:31.045Z,15.70
2022-10-17T20:53:53.722Z,22.37
2022-10-17T20:59:17.676Z,17.40
2022-10-17T21:04:46.404Z,13.63
2022-10-17T21:10:24.034Z,14.90
2022-10-17T21:15:52.530Z,18.70
2022-10-17T21:21:26.686Z,18.20
2022-10-17T21:26:53.607Z,19.33
2022-10-17T21:32:31.791Z,18.50
2022-10-17T21:37:58.207Z,19.43
2022-10-17T21:43:20.785Z,15.63
2022-10-17T21:48:44.000Z,17.00
2022-10-17T21:54:06.624Z,21.53
2022-10-17T21:59:28.990Z,22.47
2022-10-17T22:04:50.986Z,15.43
2022-10-17T22:10:13.167Z,22.57
2022-10-17T22:15:35.656Z,21.10
2022-10-17T22:21:08.657Z,20.93
2022-10-17T22:26:32.453Z,23.17
2022-10-17T22:31:54.911Z,28.30
2022-10-17T22:37:17.156Z,21.70
2022-10-17T22:42:39.570Z,27.87
2022-10-17T22:48:02.075Z,26.10
2022-10-17T22:53:26.755Z,29.20
2022-10-17T22:58:50.047Z,26.27
2022-10-17T23:04:12.314Z,26.30
2022-10-17T23:09:34.472Z,27.47
2022-10-17T23:14:56.815Z,29.63
2022-10-17T23:20:18.985Z,34.00
2022-10-17T23:25:42.216Z,33.43
2022-10-17T23:31:18.183Z,36.40
2022-10-17T23:36:40.663Z,35.70
2022-10-17T23:42:02.873Z,33.67
2022-10-17T23:47:25.047Z,30.53
2022-10-17T23:52:47.645Z,27.97
2022-10-17T23:58:09.783Z,29.40
